Time,TemperatureF,DewpointF,PressureIn,WindDirection,WindDirectionDegrees,WindSpeedMPH,WindSpeedGustMPH,Humidity,HourlyPrecipIn,Conditions,Clouds,dailyrainin,SoftwareType,DateUTC
2013-03-04 06:00:00,38.0,37.0,-100.00,NNW,339,1.0,-999.0,95,0.00,,,-99.99,,2013-03-04 14:00:00,
2013-03-04 06:52:00,38.0,37.0,-100.00,NNW,339,1.0,-999.0,95,0.00,,,-99.99,,2013-03-04 14:52:00,
2013-03-04 08:00:00,39.0,38.0,-100.00,South,176,4.0,-999.0,95,0.00,,,-99.99,,2013-03-04 16:00:00,
2013-03-04 08:22:00,39.0,38.0,-100.00,South,176,4.0,-999.0,95,0.00,,,-99.99,,2013-03-04 16:22:00,
2013-03-04 08:32:00,39.0,38.0,-100.00,South,176,4.0,-999.0,95,0.00,,,-99.99,,2013-03-04 16:32:00,
2013-03-04 08:42:00,39.0,38.0,-100.00,South,176,4.0,-999.0,95,0.00,,,-99.99,,2013-03-04 16:42:00,
2013-03-04 08:52:00,39.0,38.0,-100.00,South,176,4.0,-999.0,95,0.00,,,-99.99,,2013-03-04 16:52:00,
2013-03-04 09:00:00,41.0,40.0,-100.00,SSW,209,1.0,-999.0,95,0.00,,,-99.99,,2013-03-04 17:00:00,
2013-03-04 09:22:00,41.0,40.0,-100.00,SSW,209,1.0,-999.0,95,0.00,,,-99.99,,2013-03-04 17:22:00,
2013-03-04 09:32:00,41.0,40.0,-100.00,SSW,209,1.0,-999.0,95,0.00,,,-99.99,,2013-03-04 17:32:00,
2013-03-04 09:42:00,41.0,40.0,-100.00,SSW,209,1.0,-999.0,95,0.00,,,-99.99,,2013-03-04 17:42:00,
2013-03-04 09:52:00,41.0,40.0,-100.00,SSW,209,1.0,-999.0,95,0.00,,,-99.99,,2013-03-04 17:52:00,
2013-03-04 10:00:00,42.0,41.0,-100.00,ENE,64,3.0,-999.0,94,0.00,,,-99.99,,2013-03-04 18:00:00,
2013-03-04 10:22:00,42.0,41.0,-100.00,ENE,64,3.0,-999.0,94,0.00,,,-99.99,,2013-03-04 18:22:00,
2013-03-04 10:32:00,42.0,41.0,-100.00,ENE,64,3.0,-999.0,94,0.00,,,-99.99,,2013-03-04 18:32:00,
2013-03-04 10:42:00,42.0,41.0,-100.00,ENE,64,3.0,-999.0,94,0.00,,,-99.99,,2013-03-04 18:42:00,
2013-03-04 10:52:00,42.0,41.0,-100.00,ENE,64,3.0,-999.0,94,0.00,,,-99.99,,2013-03-04 18:52:00,
2013-03-04 11:00:00,44.0,42.0,-100.00,NNW,328,5.0,-999.0,92,0.00,,,-99.99,,2013-03-04 19:00:00,
2013-03-04 11:22:00,44.0,42.0,-100.00,NNW,328,5.0,-999.0,92,0.00,,,-99.99,,2013-03-04 19:22:00,
2013-03-04 11:32:00,44.0,42.0,-100.00,NNW,328,5.0,-999.0,92,0.00,,,-99.99,,2013-03-04 19:32:00,
2013-03-04 11:42:00,44.0,42.0,-100.00,NNW,328,5.0,-999.0,92,0.00,,,-99.99,,2013-03-04 19:42:00,
2013-03-04 11:52:00,44.0,42.0,-100.00,NNW,328,5.0,-999.0,92,0.00,,,-99.99,,2013-03-04 19:52:00,
2013-03-04 12:00:00,49.0,42.0,-100.00,SE,145,4.0,-999.0,73,0.00,,,-99.99,,2013-03-04 20:00:00,
2013-03-04 12:22:00,49.0,42.0,-100.00,SE,145,4.0,-999.0,73,0.00,,,-99.99,,2013-03-04 20:22:00,
2013-03-04 12:32:00,49.0,42.0,-100.00,SE,145,4.0,-999.0,73,0.00,,,-99.99,,2013-03-04 20:32:00,
2013-03-04 12:42:00,49.0,42.0,-100.00,SE,145,4.0,-999.0,73,0.00,,,-99.99,,2013-03-04 20:42:00,
2013-03-04 12:52:00,49.0,42.0,-100.00,SE,145,4.0,-999.0,73,0.00,,,-99.99,,2013-03-04 20:52:00,
2013-03-04 13:00:00,55.0,44.0,-100.00,SSE,161,6.0,-999.0,64,0.00,,,-99.99,,2013-03-04 21:00:00,
2013-03-04 13:22:00,55.0,44.0,-100.00,SSE,161,6.0,-999.0,64,0.00,,,-99.99,,2013-03-04 21:22:00,
2013-03-04 13:32:00,55.0,44.0,-100.00,SSE,161,6.0,-999.0,64,0.00,,,-99.99,,2013-03-04 21:32:00,
2013-03-04 13:43:00,55.0,44.0,-100.00,SSE,161,6.0,-999.0,64,0.00,,,-99.99,,2013-03-04 21:43:00,
2013-03-04 13:52:00,55.0,44.0,-100.00,SSE,161,6.0,-999.0,64,0.00,,,-99.99,,2013-03-04 21:52:00,
2013-03-04 14:00:00,56.0,44.0,-100.00,SW,223,1.0,-999.0,63,0.00,,,-99.99,,2013-03-04 22:00:00,
2013-03-04 14:22:00,56.0,44.0,-100.00,SW,223,1.0,-999.0,63,0.00,,,-99.99,,2013-03-04 22:22:00,
2013-03-04 14:32:00,56.0,44.0,-100.00,SW,223,1.0,-999.0,63,0.00,,,-99.99,,2013-03-04 22:32:00,
2013-03-04 14:42:00,56.0,44.0,-100.00,SW,223,1.0,-999.0,63,0.00,,,-99.99,,2013-03-04 22:42:00,
2013-03-04 14:52:00,56.0,44.0,-100.00,SW,223,1.0,-999.0,63,0.00,,,-99.99,,2013-03-04 22:52:00,
2013-03-04 15:00:00,52.0,42.0,-100.00,NNW,331,1.0,-999.0,69,0.00,,,-99.99,,2013-03-04 23:00:00,
2013-03-04 15:22:00,52.0,42.0,-100.00,NNW,331,1.0,-999.0,69,0.00,,,-99.99,,2013-03-04 23:22:00,
2013-03-04 15:32:00,52.0,42.0,-100.00,NNW,331,1.0,-999.0,69,0.00,,,-99.99,,2013-03-04 23:32:00,
2013-03-04 15:42:00,52.0,42.0,-100.00,NNW,331,1.0,-999.0,69,0.00,,,-99.99,,2013-03-04 23:42:00,
2013-03-04 15:52:00,52.0,42.0,-100.00,NNW,331,1.0,-999.0,69,0.00,,,-99.99,,2013-03-04 23:52:00,
2013-03-04 16:00:00,52.0,40.0,-100.00,NW,309,4.0,-999.0,64,0.00,,,-99.99,,2013-03-05 00:00:00,
2013-03-04 16:22:00,52.0,40.0,-100.00,NW,309,4.0,-999.0,64,0.00,,,-99.99,,2013-03-05 00:22:00,
2013-03-04 16:32:00,52.0,40.0,-100.00,NW,309,4.0,-999.0,64,0.00,,,-99.99,,2013-03-05 00:32:00,
2013-03-04 16:42:00,52.0,40.0,-100.00,NW,309,4.0,-999.0,64,0.00,,,-99.99,,2013-03-05 00:42:00,
2013-03-04 16:52:00,52.0,40.0,-100.00,NW,309,4.0,-999.0,64,0.00,,,-99.99,,2013-03-05 00:52:00,
2013-03-04 17:00:00,51.0,40.0,-100.00,NW,322,2.0,-999.0,63,0.00,,,-99.99,,2013-03-05 01:00:00,
2013-03-04 17:22:00,51.0,40.0,-100.00,NW,322,2.0,-999.0,63,0.00,,,-99.99,,2013-03-05 01:22:00,
2013-03-04 17:33:00,51.0,40.0,-100.00,NW,322,2.0,-999.0,63,0.00,,,-99.99,,2013-03-05 01:33:00,
2013-03-04 17:42:00,51.0,40.0,-100.00,NW,322,2.0,-999.0,63,0.00,,,-99.99,,2013-03-05 01:42:00,
2013-03-04 17:52:00,51.0,40.0,-100.00,NW,322,2.0,-999.0,63,0.00,,,-99.99,,2013-03-05 01:52:00,
2013-03-04 18:00:00,47.0,40.0,-100.00,West,260,2.0,-999.0,77,0.00,,,-99.99,,2013-03-05 02:00:00,
2013-03-04 18:22:00,47.0,40.0,-100.00,West,260,2.0,-999.0,77,0.00,,,-99.99,,2013-03-05 02:22:00,
2013-03-04 18:32:00,47.0,40.0,-100.00,West,260,2.0,-999.0,77,0.00,,,-99.99,,2013-03-05 02:32:00,
2013-03-04 18:42:00,47.0,40.0,-100.00,West,260,2.0,-999.0,77,0.00,,,-99.99,,2013-03-05 02:42:00,
2013-03-04 18:52:00,47.0,40.0,-100.00,West,260,2.0,-999.0,77,0.00,,,-99.99,,2013-03-05 02:52:00,
2013-03-04 19:00:00,43.0,39.0,-100.00,North,356,2.0,-999.0,86,0.00,,,-99.99,,2013-03-05 03:00:00,
2013-03-04 19:22:00,43.0,39.0,-100.00,North,356,2.0,-999.0,86,0.00,,,-99.99,,2013-03-05 03:22:00,
2013-03-04 19:32:00,43.0,39.0,-100.00,North,356,2.0,-999.0,86,0.00,,,-99.99,,2013-03-05 03:32:00,
2013-03-04 19:42:00,43.0,39.0,-100.00,North,356,2.0,-999.0,86,0.00,,,-99.99,,2013-03-05 03:42:00,
2013-03-04 19:52:00,43.0,39.0,-100.00,North,356,2.0,-999.0,86,0.00,,,-99.99,,2013-03-05 03:52:00,
2013-03-04 20:00:00,41.0,38.0,-100.00,NNW,341,3.0,-999.0,91,0.00,,,-99.99,,2013-03-05 04:00:00,
2013-03-04 20:22:00,41.0,38.0,-100.00,NNW,341,3.0,-999.0,91,0.00,,,-99.99,,2013-03-05 04:22:00,
2013-03-04 20:32:00,41.0,38.0,-100.00,NNW,341,3.0,-999.0,91,0.00,,,-99.99,,2013-03-05 04:32:00,
2013-03-04 20:42:00,41.0,38.0,-100.00,NNW,341,3.0,-999.0,91,0.00,,,-99.99,,2013-03-05 04:42:00,
2013-03-04 20:52:00,41.0,38.0,-100.00,NNW,341,3.0,-999.0,91,0.00,,,-99.99,,2013-03-05 04:52:00,
2013-03-04 21:00:00,41.0,38.0,-100.00,NNW,335,1.0,-999.0,89,0.00,,,-99.99,,2013-03-05 05:00:00,
2013-03-04 21:22:00,41.0,38.0,-100.00,NNW,335,1.0,-999.0,89,0.00,,,-99.99,,2013-03-05 05:22:00,
2013-03-04 21:32:00,41.0,38.0,-100.00,NNW,335,1.0,-999.0,89,0.00,,,-99.99,,2013-03-05 05:32:00,
2013-03-04 21:42:00,41.0,38.0,-100.00,NNW,335,1.0,-999.0,89,0.00,,,-99.99,,2013-03-05 05:42:00,
2013-03-04 21:52:00,41.0,38.0,-100.00,NNW,335,1.0,-999.0,89,0.00,,,-99.99,,2013-03-05 05:52:00,
2013-03-04 22:00:00,40.0,38.0,-100.00,NW,319,1.0,-999.0,91,0.00,,,-99.99,,2013-03-05 06:00:00,
2013-03-04 22:22:00,40.0,38.0,-100.00,NW,319,1.0,-999.0,91,0.00,,,-99.99,,2013-03-05 06:22:00,
2013-03-04 22:32:00,40.0,38.0,-100.00,NW,319,1.0,-999.0,91,0.00,,,-99.99,,2013-03-05 06:32:00,
2013-03-04 22:42:00,40.0,38.0,-100.00,NW,319,1.0,-999.0,91,0.00,,,-99.99,,2013-03-05 06:42:00,
2013-03-04 22:52:00,40.0,38.0,-100.00,NW,319,1.0,-999.0,91,0.00,,,-99.99,,2013-03-05 06:52:00,
2013-03-04 23:00:00,40.0,38.0,-100.00,WNW,301,0.0,-999.0,92,0.00,,,-99.99,,2013-03-05 07:00:00,
2013-03-04 23:22:00,40.0,38.0,-100.00,WNW,301,0.0,-999.0,92,0.00,,,-99.99,,2013-03-05 07:22:00,
2013-03-04 23:32:00,40.0,38.0,-100.00,WNW,301,0.0,-999.0,92,0.00,,,-99.99,,2013-03-05 07:32:00,
2013-03-04 23:42:00,40.0,38.0,-100.00,WNW,301,0.0,-999.0,92,0.00,,,-99.99,,2013-03-05 07:42:00,
2013-03-04 23:52:00,40.0,38.0,-100.00,WNW,301,0.0,-999.0,92,0.00,,,-99.99,,2013-03-05 07:52:00,